sensor_id;sensor_type;location;lat;lon;timestamp;temperature;humidity
12504;DHT22;6316;48.118;-1.690;2024-02-28T00:00:26;7.20;99.90
12504;DHT22;6316;48.118;-1.690;2024-02-28T00:02:51;7.20;99.90
12504;DHT22;6316;48.118;-1.690;2024-02-28T00:05:17;7.30;99.90
12504;DHT22;6316;48.118;-1.690;2024-02-28T00:07:43;7.20;99.90
12504;DHT22;6316;48.118;-1.690;2024-02-28T00:10:09;7.20;99.90
12504;DHT22;6316;48.118;-1.690;2024-02-28T00:12:34;7.20;99.90
12504;DHT22;6316;48.118;-1.690;2024-02-28T00:15:00;7.20;99.90
12504;DHT22;6316;48.118;-1.690;2024-02-28T00:17:26;7.20;99.90
12504;DHT22;6316;48.118;-1.690;2024-02-28T00:19:52;7.20;99.90
12504;DHT22;6316;48.118;-1.690;2024-02-28T00:22:17;7.20;99.90
12504;DHT22;6316;48.118;-1.690;2024-02-28T00:24:43;7.10;99.90
12504;DHT22;6316;48.118;-1.690;2024-02-28T00:27:08;7.20;99.90
12504;DHT22;6316;48.118;-1.690;2024-02-28T00:29:34;7.20;99.90
12504;DHT22;6316;48.118;-1.690;2024-02-28T00:32:00;7.20;99.90
12504;DHT22;6316;48.118;-1.690;2024-02-28T00:34:25;7.30;99.90
12504;DHT22;6316;48.118;-1.690;2024-02-28T00:36:51;7.30;99.90
12504;DHT22;6316;48.118;-1.690;2024-02-28T00:39:17;7.20;99.90
12504;DHT22;6316;48.118;-1.690;2024-02-28T00:41:43;7.20;99.90
12504;DHT22;6316;48.118;-1.690;2024-02-28T00:44:08;7.30;99.90
12504;DHT22;6316;48.118;-1.690;2024-02-28T00:46:34;7.20;99.90
12504;DHT22;6316;48.118;-1.690;2024-02-28T00:49:00;7.30;99.90
12504;DHT22;6316;48.118;-1.690;2024-02-28T00:51:25;7.30;99.90
12504;DHT22;6316;48.118;-1.690;2024-02-28T00:53:51;7.30;99.90
12504;DHT22;6316;48.118;-1.690;2024-02-28T00:56:17;7.40;99.90
12504;DHT22;6316;48.118;-1.690;2024-02-28T00:58:44;7.30;99.90
12504;DHT22;6316;48.118;-1.690;2024-02-28T01:01:10;7.30;99.90
12504;DHT22;6316;48.118;-1.690;2024-02-28T01:03:35;7.20;99.90
12504;DHT22;6316;48.118;-1.690;2024-02-28T01:06:01;7.30;99.90
12504;DHT22;6316;48.118;-1.690;2024-02-28T01:08:28;7.30;99.90
12504;DHT22;6316;48.118;-1.690;2024-02-28T01:10:54;7.30;99.90
12504;DHT22;6316;48.118;-1.690;2024-02-28T01:13:20;7.30;99.90
12504;DHT22;6316;48.118;-1.690;2024-02-28T01:15:46;7.30;99.90
12504;DHT22;6316;48.118;-1.690;2024-02-28T01:18:12;7.30;99.90
12504;DHT22;6316;48.118;-1.690;2024-02-28T01:20:37;7.30;99.90
12504;DHT22;6316;48.118;-1.690;2024-02-28T01:23:03;7.30;99.90
12504;DHT22;6316;48.118;-1.690;2024-02-28T01:25:29;7.40;99.90
12504;DHT22;6316;48.118;-1.690;2024-02-28T01:27:56;7.50;99.90
12504;DHT22;6316;48.118;-1.690;2024-02-28T01:30:23;7.40;99.90
12504;DHT22;6316;48.118;-1.690;2024-02-28T01:32:49;7.50;99.90
12504;DHT22;6316;48.118;-1.690;2024-02-28T01:35:14;7.40;99.90
12504;DHT22;6316;48.118;-1.690;2024-02-28T01:37:40;7.50;99.90
12504;DHT22;6316;48.118;-1.690;2024-02-28T01:40:06;7.60;99.90
12504;DHT22;6316;48.118;-1.690;2024-02-28T01:42:32;7.50;99.90
12504;DHT22;6316;48.118;-1.690;2024-02-28T01:44:58;7.50;99.90
12504;DHT22;6316;48.118;-1.690;2024-02-28T01:47:23;7.50;99.90
12504;DHT22;6316;48.118;-1.690;2024-02-28T01:49:49;7.50;99.90
12504;DHT22;6316;48.118;-1.690;2024-02-28T01:52:17;7.50;99.90
12504;DHT22;6316;48.118;-1.690;2024-02-28T01:54:43;7.50;99.90
12504;DHT22;6316;48.118;-1.690;2024-02-28T01:57:09;7.50;99.90
12504;DHT22;6316;48.118;-1.690;2024-02-28T01:59:35;7.50;99.90
12504;DHT22;6316;48.118;-1.690;2024-02-28T02:02:02;7.50;99.90
12504;DHT22;6316;48.118;-1.690;2024-02-28T02:04:27;7.50;99.90
12504;DHT22;6316;48.118;-1.690;2024-02-28T02:06:53;7.60;99.90
12504;DHT22;6316;48.118;-1.690;2024-02-28T02:09:19;7.40;99.90
12504;DHT22;6316;48.118;-1.690;2024-02-28T02:11:45;7.50;99.90
12504;DHT22;6316;48.118;-1.690;2024-02-28T02:14:11;7.50;99.90
12504;DHT22;6316;48.118;-1.690;2024-02-28T02:16:36;7.40;99.90
12504;DHT22;6316;48.118;-1.690;2024-02-28T02:19:03;7.50;99.90
12504;DHT22;6316;48.118;-1.690;2024-02-28T02:21:40;7.50;99.90
12504;DHT22;6316;48.118;-1.690;2024-02-28T02:24:06;7.50;99.90
12504;DHT22;6316;48.118;-1.690;2024-02-28T02:26:32;7.60;99.90
12504;DHT22;6316;48.118;-1.690;2024-02-28T02:28:58;7.60;99.90
12504;DHT22;6316;48.118;-1.690;2024-02-28T02:31:23;7.60;99.90
12504;DHT22;6316;48.118;-1.690;2024-02-28T02:33:49;7.60;99.90
12504;DHT22;6316;48.118;-1.690;2024-02-28T02:36:14;7.60;99.90
12504;DHT22;6316;48.118;-1.690;2024-02-28T02:38:40;7.70;99.90
12504;DHT22;6316;48.118;-1.690;2024-02-28T02:41:06;7.70;99.90
12504;DHT22;6316;48.118;-1.690;2024-02-28T02:43:31;7.60;99.90
12504;DHT22;6316;48.118;-1.690;2024-02-28T02:45:57;7.70;99.90
12504;DHT22;6316;48.118;-1.690;2024-02-28T02:48:22;7.80;99.90
12504;DHT22;6316;48.118;-1.690;2024-02-28T02:50:48;7.70;99.90
12504;DHT22;6316;48.118;-1.690;2024-02-28T02:53:14;7.80;99.90
12504;DHT22;6316;48.118;-1.690;2024-02-28T02:55:40;7.80;99.90
12504;DHT22;6316;48.118;-1.690;2024-02-28T02:58:05;7.90;99.90
12504;DHT22;6316;48.118;-1.690;2024-02-28T03:00:31;7.90;99.90
12504;DHT22;6316;48.118;-1.690;2024-02-28T03:02:56;7.80;99.90
12504;DHT22;6316;48.118;-1.690;2024-02-28T03:05:22;7.80;99.90
12504;DHT22;6316;48.118;-1.690;2024-02-28T03:07:48;7.90;99.90
12504;DHT22;6316;48.118;-1.690;2024-02-28T03:10:13;7.90;99.90
12504;DHT22;6316;48.118;-1.690;2024-02-28T03:12:39;7.90;99.90
12504;DHT22;6316;48.118;-1.690;2024-02-28T03:15:05;7.80;99.90
12504;DHT22;6316;48.118;-1.690;2024-02-28T03:17:31;7.90;99.90
12504;DHT22;6316;48.118;-1.690;2024-02-28T03:19:56;7.90;99.90
12504;DHT22;6316;48.118;-1.690;2024-02-28T03:22:22;7.90;99.90
12504;DHT22;6316;48.118;-1.690;2024-02-28T03:24:48;8.00;99.90
12504;DHT22;6316;48.118;-1.690;2024-02-28T03:27:14;8.00;99.90
12504;DHT22;6316;48.118;-1.690;2024-02-28T03:29:39;7.90;99.90
12504;DHT22;6316;48.118;-1.690;2024-02-28T03:32:05;8.00;99.90
12504;DHT22;6316;48.118;-1.690;2024-02-28T03:34:31;8.00;99.90
12504;DHT22;6316;48.118;-1.690;2024-02-28T03:36:57;8.00;99.90
12504;DHT22;6316;48.118;-1.690;2024-02-28T03:39:23;8.10;99.90
12504;DHT22;6316;48.118;-1.690;2024-02-28T03:41:48;8.00;99.90
12504;DHT22;6316;48.118;-1.690;2024-02-28T03:44:14;8.00;99.90
12504;DHT22;6316;48.118;-1.690;2024-02-28T03:46:39;8.00;99.90
12504;DHT22;6316;48.118;-1.690;2024-02-28T03:49:05;8.10;99.90
12504;DHT22;6316;48.118;-1.690;2024-02-28T03:51:31;8.10;99.90
12504;DHT22;6316;48.118;-1.690;2024-02-28T03:53:56;8.10;99.90
12504;DHT22;6316;48.118;-1.690;2024-02-28T03:56:23;8.10;99.90
12504;DHT22;6316;48.118;-1.690;2024-02-28T03:58:50;8.10;99.90
12504;DHT22;6316;48.118;-1.690;2024-02-28T04:01:16;8.10;99.90
12504;DHT22;6316;48.118;-1.690;2024-02-28T04:03:41;8.10;99.90
12504;DHT22;6316;48.118;-1.690;2024-02-28T04:06:07;8.10;99.90
12504;DHT22;6316;48.118;-1.690;2024-02-28T04:08:33;8.10;99.90
12504;DHT22;6316;48.118;-1.690;2024-02-28T04:10:58;8.20;99.90
12504;DHT22;6316;48.118;-1.690;2024-02-28T04:13:24;8.10;99.90
12504;DHT22;6316;48.118;-1.690;2024-02-28T04:15:49;8.10;99.90
12504;DHT22;6316;48.118;-1.690;2024-02-28T04:18:15;8.20;99.90
12504;DHT22;6316;48.118;-1.690;2024-02-28T04:20:41;8.20;99.90
12504;DHT22;6316;48.118;-1.690;2024-02-28T04:23:06;8.20;99.90
12504;DHT22;6316;48.118;-1.690;2024-02-28T04:25:32;8.10;99.90
12504;DHT22;6316;48.118;-1.690;2024-02-28T04:28:34;8.20;99.90
12504;DHT22;6316;48.118;-1.690;2024-02-28T04:31:00;8.10;99.90
12504;DHT22;6316;48.118;-1.690;2024-02-28T04:33:26;8.10;99.90
12504;DHT22;6316;48.118;-1.690;2024-02-28T04:35:51;8.20;99.90
12504;DHT22;6316;48.118;-1.690;2024-02-28T04:38:17;8.10;99.90
12504;DHT22;6316;48.118;-1.690;2024-02-28T04:40:42;8.10;99.90
12504;DHT22;6316;48.118;-1.690;2024-02-28T04:43:08;8.10;99.90
12504;DHT22;6316;48.118;-1.690;2024-02-28T04:45:34;8.10;99.90
12504;DHT22;6316;48.118;-1.690;2024-02-28T04:47:59;8.00;99.90
12504;DHT22;6316;48.118;-1.690;2024-02-28T04:50:25;8.10;99.90
12504;DHT22;6316;48.118;-1.690;2024-02-28T04:52:50;8.10;99.90
12504;DHT22;6316;48.118;-1.690;2024-02-28T04:55:16;8.10;99.90
12504;DHT22;6316;48.118;-1.690;2024-02-28T04:57:42;8.20;99.90
12504;DHT22;6316;48.118;-1.690;2024-02-28T05:00:08;8.10;99.90
12504;DHT22;6316;48.118;-1.690;2024-02-28T05:02:33;8.20;99.90
12504;DHT22;6316;48.118;-1.690;2024-02-28T05:04:59;8.20;99.90
12504;DHT22;6316;48.118;-1.690;2024-02-28T05:07:25;8.20;99.90
12504;DHT22;6316;48.118;-1.690;2024-02-28T05:09:50;8.20;99.90
12504;DHT22;6316;48.118;-1.690;2024-02-28T05:12:16;8.20;99.90
12504;DHT22;6316;48.118;-1.690;2024-02-28T05:14:42;8.30;99.90
12504;DHT22;6316;48.118;-1.690;2024-02-28T05:17:07;8.20;99.90
12504;DHT22;6316;48.118;-1.690;2024-02-28T05:19:33;8.20;99.90
12504;DHT22;6316;48.118;-1.690;2024-02-28T05:21:58;8.20;99.90
12504;DHT22;6316;48.118;-1.690;2024-02-28T05:24:26;8.20;99.90
12504;DHT22;6316;48.118;-1.690;2024-02-28T05:26:51;8.20;99.90
12504;DHT22;6316;48.118;-1.690;2024-02-28T05:29:17;8.20;99.90
12504;DHT22;6316;48.118;-1.690;2024-02-28T05:31:43;8.20;99.90
12504;DHT22;6316;48.118;-1.690;2024-02-28T05:34:08;8.10;99.90
12504;DHT22;6316;48.118;-1.690;2024-02-28T05:36:34;8.10;99.90
12504;DHT22;6316;48.118;-1.690;2024-02-28T05:39:00;8.10;99.90
12504;DHT22;6316;48.118;-1.690;2024-02-28T05:41:27;8.10;99.90
12504;DHT22;6316;48.118;-1.690;2024-02-28T05:43:53;8.10;99.90
12504;DHT22;6316;48.118;-1.690;2024-02-28T05:46:19;8.20;99.90
12504;DHT22;6316;48.118;-1.690;2024-02-28T05:48:47;8.20;99.90
12504;DHT22;6316;48.118;-1.690;2024-02-28T05:51:13;8.20;99.90
12504;DHT22;6316;48.118;-1.690;2024-02-28T05:53:39;8.20;99.90
12504;DHT22;6316;48.118;-1.690;2024-02-28T05:56:06;8.20;99.90
12504;DHT22;6316;48.118;-1.690;2024-02-28T05:58:39;8.20;99.90
12504;DHT22;6316;48.118;-1.690;2024-02-28T06:01:04;8.20;99.90
12504;DHT22;6316;48.118;-1.690;2024-02-28T06:03:30;8.20;99.90
12504;DHT22;6316;48.118;-1.690;2024-02-28T06:05:55;8.20;99.90
12504;DHT22;6316;48.118;-1.690;2024-02-28T06:08:23;8.30;99.90
12504;DHT22;6316;48.118;-1.690;2024-02-28T06:10:48;8.20;99.90
12504;DHT22;6316;48.118;-1.690;2024-02-28T06:13:14;8.20;99.90
12504;DHT22;6316;48.118;-1.690;2024-02-28T06:15:40;8.20;99.90
12504;DHT22;6316;48.118;-1.690;2024-02-28T06:18:06;8.20;99.90
12504;DHT22;6316;48.118;-1.690;2024-02-28T06:20:31;8.30;99.90
12504;DHT22;6316;48.118;-1.690;2024-02-28T06:22:57;8.30;99.90
12504;DHT22;6316;48.118;-1.690;2024-02-28T06:25:22;8.30;99.90
12504;DHT22;6316;48.118;-1.690;2024-02-28T06:27:49;8.30;99.90
12504;DHT22;6316;48.118;-1.690;2024-02-28T06:30:16;8.30;99.90
12504;DHT22;6316;48.118;-1.690;2024-02-28T06:32:44;8.30;99.90
12504;DHT22;6316;48.118;-1.690;2024-02-28T06:35:10;8.30;99.90
12504;DHT22;6316;48.118;-1.690;2024-02-28T06:37:36;8.30;99.90
12504;DHT22;6316;48.118;-1.690;2024-02-28T06:40:03;8.30;99.90
12504;DHT22;6316;48.118;-1.690;2024-02-28T06:42:34;8.30;99.90
12504;DHT22;6316;48.118;-1.690;2024-02-28T06:45:02;8.40;99.90
12504;DHT22;6316;48.118;-1.690;2024-02-28T06:47:28;8.40;99.90
12504;DHT22;6316;48.118;-1.690;2024-02-28T06:49:53;8.40;99.90
12504;DHT22;6316;48.118;-1.690;2024-02-28T06:52:19;8.40;99.90
12504;DHT22;6316;48.118;-1.690;2024-02-28T06:54:45;8.30;99.90
12504;DHT22;6316;48.118;-1.690;2024-02-28T06:57:10;8.40;99.90
12504;DHT22;6316;48.118;-1.690;2024-02-28T06:59:36;8.40;99.90
12504;DHT22;6316;48.118;-1.690;2024-02-28T07:02:02;8.40;99.90
12504;DHT22;6316;48.118;-1.690;2024-02-28T07:04:28;8.40;99.90
12504;DHT22;6316;48.118;-1.690;2024-02-28T07:06:54;8.40;99.90
12504;DHT22;6316;48.118;-1.690;2024-02-28T07:09:19;8.40;99.90
12504;DHT22;6316;48.118;-1.690;2024-02-28T07:11:45;8.40;99.90
12504;DHT22;6316;48.118;-1.690;2024-02-28T07:14:11;8.40;99.90
12504;DHT22;6316;48.118;-1.690;2024-02-28T07:16:37;8.40;99.90
12504;DHT22;6316;48.118;-1.690;2024-02-28T07:19:03;8.40;99.90
12504;DHT22;6316;48.118;-1.690;2024-02-28T07:21:28;8.40;99.90
12504;DHT22;6316;48.118;-1.690;2024-02-28T07:23:55;8.50;99.90
12504;DHT22;6316;48.118;-1.690;2024-02-28T07:26:21;8.50;99.90
12504;DHT22;6316;48.118;-1.690;2024-02-28T07:28:47;8.60;99.90
12504;DHT22;6316;48.118;-1.690;2024-02-28T07:31:18;8.60;99.90
12504;DHT22;6316;48.118;-1.690;2024-02-28T07:33:45;8.50;99.90
12504;DHT22;6316;48.118;-1.690;2024-02-28T07:36:11;8.50;99.90
12504;DHT22;6316;48.118;-1.690;2024-02-28T07:38:37;8.60;99.90
12504;DHT22;6316;48.118;-1.690;2024-02-28T07:41:03;8.70;99.90
12504;DHT22;6316;48.118;-1.690;2024-02-28T07:43:28;8.70;99.90
12504;DHT22;6316;48.118;-1.690;2024-02-28T07:45:58;8.80;99.90
12504;DHT22;6316;48.118;-1.690;2024-02-28T07:48:24;8.70;99.90
12504;DHT22;6316;48.118;-1.690;2024-02-28T07:50:49;8.80;99.90
12504;DHT22;6316;48.118;-1.690;2024-02-28T07:53:16;8.80;99.90
12504;DHT22;6316;48.118;-1.690;2024-02-28T07:55:42;8.70;99.90
12504;DHT22;6316;48.118;-1.690;2024-02-28T07:58:08;8.90;99.90
12504;DHT22;6316;48.118;-1.690;2024-02-28T08:00:34;8.90;99.90
12504;DHT22;6316;48.118;-1.690;2024-02-28T08:03:00;8.90;99.90
12504;DHT22;6316;48.118;-1.690;2024-02-28T08:05:26;8.90;99.90
12504;DHT22;6316;48.118;-1.690;2024-02-28T08:07:51;8.90;99.90
12504;DHT22;6316;48.118;-1.690;2024-02-28T08:10:17;9.10;99.90
12504;DHT22;6316;48.118;-1.690;2024-02-28T08:12:43;9.10;99.90
12504;DHT22;6316;48.118;-1.690;2024-02-28T08:15:09;9.10;99.90
12504;DHT22;6316;48.118;-1.690;2024-02-28T08:17:35;9.10;99.90
12504;DHT22;6316;48.118;-1.690;2024-02-28T08:20:00;9.10;99.90
12504;DHT22;6316;48.118;-1.690;2024-02-28T08:22:26;9.20;99.90
12504;DHT22;6316;48.118;-1.690;2024-02-28T08:24:52;9.30;99.90
12504;DHT22;6316;48.118;-1.690;2024-02-28T08:27:18;9.40;99.90
12504;DHT22;6316;48.118;-1.690;2024-02-28T08:29:43;9.50;99.90
12504;DHT22;6316;48.118;-1.690;2024-02-28T08:32:11;9.50;99.90
12504;DHT22;6316;48.118;-1.690;2024-02-28T08:34:36;9.40;99.90
12504;DHT22;6316;48.118;-1.690;2024-02-28T08:37:02;9.50;99.90
12504;DHT22;6316;48.118;-1.690;2024-02-28T08:39:28;9.70;99.90
12504;DHT22;6316;48.118;-1.690;2024-02-28T08:41:53;9.80;99.90
12504;DHT22;6316;48.118;-1.690;2024-02-28T08:44:19;9.80;99.90
12504;DHT22;6316;48.118;-1.690;2024-02-28T08:46:48;10.00;99.90
12504;DHT22;6316;48.118;-1.690;2024-02-28T08:49:15;10.00;99.90
12504;DHT22;6316;48.118;-1.690;2024-02-28T08:51:40;10.00;99.90
12504;DHT22;6316;48.118;-1.690;2024-02-28T08:54:06;10.10;99.90
12504;DHT22;6316;48.118;-1.690;2024-02-28T08:56:32;10.20;99.90
12504;DHT22;6316;48.118;-1.690;2024-02-28T08:58:59;10.20;99.90
12504;DHT22;6316;48.118;-1.690;2024-02-28T09:01:25;10.30;99.90
12504;DHT22;6316;48.118;-1.690;2024-02-28T09:03:50;10.20;99.90
12504;DHT22;6316;48.118;-1.690;2024-02-28T09:06:16;10.40;99.90
12504;DHT22;6316;48.118;-1.690;2024-02-28T09:08:42;10.30;99.90
12504;DHT22;6316;48.118;-1.690;2024-02-28T09:11:08;10.50;99.90
12504;DHT22;6316;48.118;-1.690;2024-02-28T09:13:33;10.50;99.90
12504;DHT22;6316;48.118;-1.690;2024-02-28T09:16:01;10.50;99.90
12504;DHT22;6316;48.118;-1.690;2024-02-28T09:18:27;10.50;99.90
12504;DHT22;6316;48.118;-1.690;2024-02-28T09:20:52;10.60;99.90
12504;DHT22;6316;48.118;-1.690;2024-02-28T09:23:18;10.60;99.90
12504;DHT22;6316;48.118;-1.690;2024-02-28T09:25:44;10.60;99.90
12504;DHT22;6316;48.118;-1.690;2024-02-28T09:28:10;10.50;99.90
12504;DHT22;6316;48.118;-1.690;2024-02-28T09:30:39;10.70;99.90
12504;DHT22;6316;48.118;-1.690;2024-02-28T09:33:04;10.70;99.90
12504;DHT22;6316;48.118;-1.690;2024-02-28T09:35:30;10.70;99.90
12504;DHT22;6316;48.118;-1.690;2024-02-28T09:37:56;10.80;99.90
12504;DHT22;6316;48.118;-1.690;2024-02-28T09:40:22;10.80;99.90
12504;DHT22;6316;48.118;-1.690;2024-02-28T09:42:52;10.90;99.90
12504;DHT22;6316;48.118;-1.690;2024-02-28T09:45:21;10.90;99.90
12504;DHT22;6316;48.118;-1.690;2024-02-28T09:47:48;11.00;99.90
12504;DHT22;6316;48.118;-1.690;2024-02-28T09:50:14;11.00;99.90
12504;DHT22;6316;48.118;-1.690;2024-02-28T09:52:40;11.10;99.90
12504;DHT22;6316;48.118;-1.690;2024-02-28T09:55:05;11.10;99.90
12504;DHT22;6316;48.118;-1.690;2024-02-28T09:57:32;11.20;99.90
12504;DHT22;6316;48.118;-1.690;2024-02-28T10:00:00;11.30;99.90
12504;DHT22;6316;48.118;-1.690;2024-02-28T10:02:28;11.40;99.90
12504;DHT22;6316;48.118;-1.690;2024-02-28T10:04:55;11.40;99.90
12504;DHT22;6316;48.118;-1.690;2024-02-28T10:07:23;11.40;99.90
12504;DHT22;6316;48.118;-1.690;2024-02-28T10:09:48;11.40;99.90
12504;DHT22;6316;48.118;-1.690;2024-02-28T10:12:14;11.50;99.90
12504;DHT22;6316;48.118;-1.690;2024-02-28T10:14:40;11.50;99.90
12504;DHT22;6316;48.118;-1.690;2024-02-28T10:17:06;11.50;99.90
12504;DHT22;6316;48.118;-1.690;2024-02-28T10:19:33;11.50;99.90
12504;DHT22;6316;48.118;-1.690;2024-02-28T10:21:59;11.50;99.90
12504;DHT22;6316;48.118;-1.690;2024-02-28T10:24:25;11.50;99.90
12504;DHT22;6316;48.118;-1.690;2024-02-28T10:26:51;11.50;99.90
12504;DHT22;6316;48.118;-1.690;2024-02-28T10:29:23;11.50;99.90
12504;DHT22;6316;48.118;-1.690;2024-02-28T10:31:50;11.50;99.90
12504;DHT22;6316;48.118;-1.690;2024-02-28T10:34:17;11.40;99.90
12504;DHT22;6316;48.118;-1.690;2024-02-28T10:36:43;11.40;99.90
12504;DHT22;6316;48.118;-1.690;2024-02-28T10:39:11;11.40;99.90
12504;DHT22;6316;48.118;-1.690;2024-02-28T10:41:40;11.40;99.90
12504;DHT22;6316;48.118;-1.690;2024-02-28T10:44:07;11.40;99.90
12504;DHT22;6316;48.118;-1.690;2024-02-28T10:46:33;11.50;99.90
12504;DHT22;6316;48.118;-1.690;2024-02-28T10:48:58;11.50;99.90
12504;DHT22;6316;48.118;-1.690;2024-02-28T10:51:25;11.50;99.90
12504;DHT22;6316;48.118;-1.690;2024-02-28T10:54:04;11.50;99.90
12504;DHT22;6316;48.118;-1.690;2024-02-28T10:56:32;11.50;99.90
12504;DHT22;6316;48.118;-1.690;2024-02-28T10:58:59;11.40;99.90
12504;DHT22;6316;48.118;-1.690;2024-02-28T11:01:25;11.40;99.90
12504;DHT22;6316;48.118;-1.690;2024-02-28T11:03:51;11.40;99.90
12504;DHT22;6316;48.118;-1.690;2024-02-28T11:06:22;11.50;99.90
12504;DHT22;6316;48.118;-1.690;2024-02-28T11:08:48;11.50;99.90
12504;DHT22;6316;48.118;-1.690;2024-02-28T11:11:18;11.60;99.90
12504;DHT22;6316;48.118;-1.690;2024-02-28T11:13:58;11.60;99.90
12504;DHT22;6316;48.118;-1.690;2024-02-28T11:16:27;11.70;99.90
12504;DHT22;6316;48.118;-1.690;2024-02-28T11:18:53;11.70;99.90
12504;DHT22;6316;48.118;-1.690;2024-02-28T11:21:19;11.70;99.90
12504;DHT22;6316;48.118;-1.690;2024-02-28T11:23:48;11.80;99.90
12504;DHT22;6316;48.118;-1.690;2024-02-28T11:26:14;11.80;99.90
12504;DHT22;6316;48.118;-1.690;2024-02-28T11:28:40;11.90;99.90
12504;DHT22;6316;48.118;-1.690;2024-02-28T11:31:06;12.00;99.90
12504;DHT22;6316;48.118;-1.690;2024-02-28T11:33:31;12.10;99.90
12504;DHT22;6316;48.118;-1.690;2024-02-28T11:35:59;12.20;99.90
12504;DHT22;6316;48.118;-1.690;2024-02-28T11:38:27;12.20;99.90
12504;DHT22;6316;48.118;-1.690;2024-02-28T11:40:54;12.20;99.90
12504;DHT22;6316;48.118;-1.690;2024-02-28T11:43:21;12.30;99.90
12504;DHT22;6316;48.118;-1.690;2024-02-28T11:45:46;12.30;99.90
12504;DHT22;6316;48.118;-1.690;2024-02-28T11:48:13;12.40;99.90
12504;DHT22;6316;48.118;-1.690;2024-02-28T11:50:39;12.40;99.90
12504;DHT22;6316;48.118;-1.690;2024-02-28T11:53:06;12.40;99.90
12504;DHT22;6316;48.118;-1.690;2024-02-28T11:55:32;12.50;99.90
12504;DHT22;6316;48.118;-1.690;2024-02-28T11:57:57;12.50;99.90
12504;DHT22;6316;48.118;-1.690;2024-02-28T12:00:23;12.50;99.90
12504;DHT22;6316;48.118;-1.690;2024-02-28T12:02:49;12.60;99.90
12504;DHT22;6316;48.118;-1.690;2024-02-28T12:05:14;12.60;99.90
12504;DHT22;6316;48.118;-1.690;2024-02-28T12:07:41;12.70;99.90
12504;DHT22;6316;48.118;-1.690;2024-02-28T12:10:08;12.70;99.90
12504;DHT22;6316;48.118;-1.690;2024-02-28T12:12:34;12.70;99.90
12504;DHT22;6316;48.118;-1.690;2024-02-28T12:15:00;12.70;99.90
12504;DHT22;6316;48.118;-1.690;2024-02-28T12:17:26;12.70;99.90
12504;DHT22;6316;48.118;-1.690;2024-02-28T12:19:53;12.70;99.90
12504;DHT22;6316;48.118;-1.690;2024-02-28T12:22:18;12.80;99.90
12504;DHT22;6316;48.118;-1.690;2024-02-28T12:24:44;12.90;99.90
12504;DHT22;6316;48.118;-1.690;2024-02-28T12:27:10;12.90;99.90
12504;DHT22;6316;48.118;-1.690;2024-02-28T12:29:35;12.90;99.90
12504;DHT22;6316;48.118;-1.690;2024-02-28T12:32:01;12.90;99.90
12504;DHT22;6316;48.118;-1.690;2024-02-28T12:34:27;12.80;99.90
12504;DHT22;6316;48.118;-1.690;2024-02-28T12:36:53;12.80;99.90
12504;DHT22;6316;48.118;-1.690;2024-02-28T12:39:19;12.80;99.90
12504;DHT22;6316;48.118;-1.690;2024-02-28T12:41:45;12.80;99.90
12504;DHT22;6316;48.118;-1.690;2024-02-28T12:44:10;12.80;99.90
12504;DHT22;6316;48.118;-1.690;2024-02-28T12:46:36;12.90;99.90
12504;DHT22;6316;48.118;-1.690;2024-02-28T12:49:03;12.90;99.90
12504;DHT22;6316;48.118;-1.690;2024-02-28T12:51:58;13.00;99.90
12504;DHT22;6316;48.118;-1.690;2024-02-28T12:54:23;12.90;99.90
12504;DHT22;6316;48.118;-1.690;2024-02-28T12:56:50;12.90;99.90
12504;DHT22;6316;48.118;-1.690;2024-02-28T12:59:16;12.80;99.90
12504;DHT22;6316;48.118;-1.690;2024-02-28T13:01:42;12.90;99.90
12504;DHT22;6316;48.118;-1.690;2024-02-28T13:04:08;13.00;99.90
12504;DHT22;6316;48.118;-1.690;2024-02-28T13:06:34;13.00;99.90
12504;DHT22;6316;48.118;-1.690;2024-02-28T13:08:59;13.10;99.90
12504;DHT22;6316;48.118;-1.690;2024-02-28T13:11:25;13.20;99.90
12504;DHT22;6316;48.118;-1.690;2024-02-28T13:13:52;13.30;99.90
12504;DHT22;6316;48.118;-1.690;2024-02-28T13:16:21;13.30;99.90
12504;DHT22;6316;48.118;-1.690;2024-02-28T13:18:49;13.40;99.90
12504;DHT22;6316;48.118;-1.690;2024-02-28T13:21:15;13.30;99.90
12504;DHT22;6316;48.118;-1.690;2024-02-28T13:23:40;13.30;99.90
12504;DHT22;6316;48.118;-1.690;2024-02-28T13:26:06;13.30;99.90
12504;DHT22;6316;48.118;-1.690;2024-02-28T13:28:33;13.30;99.90
12504;DHT22;6316;48.118;-1.690;2024-02-28T13:30:59;13.30;99.90
12504;DHT22;6316;48.118;-1.690;2024-02-28T13:33:25;13.30;99.90
12504;DHT22;6316;48.118;-1.690;2024-02-28T13:35:52;13.30;99.90
12504;DHT22;6316;48.118;-1.690;2024-02-28T13:38:19;13.30;99.90
12504;DHT22;6316;48.118;-1.690;2024-02-28T13:40:45;13.30;99.90
12504;DHT22;6316;48.118;-1.690;2024-02-28T13:43:11;13.30;99.90
12504;DHT22;6316;48.118;-1.690;2024-02-28T13:45:45;13.30;99.90
12504;DHT22;6316;48.118;-1.690;2024-02-28T13:48:20;13.30;99.90
12504;DHT22;6316;48.118;-1.690;2024-02-28T13:50:54;13.30;99.90
12504;DHT22;6316;48.118;-1.690;2024-02-28T13:53:19;13.30;99.90
12504;DHT22;6316;48.118;-1.690;2024-02-28T13:55:45;13.30;99.90
12504;DHT22;6316;48.118;-1.690;2024-02-28T13:58:12;13.40;99.90
12504;DHT22;6316;48.118;-1.690;2024-02-28T14:00:39;13.30;99.90
12504;DHT22;6316;48.118;-1.690;2024-02-28T14:03:05;13.30;99.90
12504;DHT22;6316;48.118;-1.690;2024-02-28T14:05:31;13.30;99.90
12504;DHT22;6316;48.118;-1.690;2024-02-28T14:07:57;13.40;99.90
12504;DHT22;6316;48.118;-1.690;2024-02-28T14:10:24;13.30;99.90
12504;DHT22;6316;48.118;-1.690;2024-02-28T14:12:49;13.40;99.90
12504;DHT22;6316;48.118;-1.690;2024-02-28T14:15:21;13.30;99.90
12504;DHT22;6316;48.118;-1.690;2024-02-28T14:17:48;13.30;99.90
12504;DHT22;6316;48.118;-1.690;2024-02-28T14:20:14;13.40;99.90
12504;DHT22;6316;48.118;-1.690;2024-02-28T14:22:40;13.30;99.90
12504;DHT22;6316;48.118;-1.690;2024-02-28T14:25:11;13.30;99.90
12504;DHT22;6316;48.118;-1.690;2024-02-28T14:27:39;13.30;99.90
12504;DHT22;6316;48.118;-1.690;2024-02-28T14:30:08;13.30;99.90
12504;DHT22;6316;48.118;-1.690;2024-02-28T14:32:35;13.30;99.90
12504;DHT22;6316;48.118;-1.690;2024-02-28T14:35:06;13.30;99.90
12504;DHT22;6316;48.118;-1.690;2024-02-28T14:37:33;13.30;99.90
12504;DHT22;6316;48.118;-1.690;2024-02-28T14:40:00;13.30;99.90
12504;DHT22;6316;48.118;-1.690;2024-02-28T14:42:27;13.20;99.90
12504;DHT22;6316;48.118;-1.690;2024-02-28T14:44:53;13.20;99.90
12504;DHT22;6316;48.118;-1.690;2024-02-28T14:47:19;13.20;99.90
12504;DHT22;6316;48.118;-1.690;2024-02-28T14:49:46;13.20;99.90
12504;DHT22;6316;48.118;-1.690;2024-02-28T14:52:12;13.20;99.90
12504;DHT22;6316;48.118;-1.690;2024-02-28T14:54:39;13.20;99.90
12504;DHT22;6316;48.118;-1.690;2024-02-28T14:57:05;13.10;99.90
12504;DHT22;6316;48.118;-1.690;2024-02-28T14:59:31;13.10;99.90
12504;DHT22;6316;48.118;-1.690;2024-02-28T15:01:58;13.10;99.90
12504;DHT22;6316;48.118;-1.690;2024-02-28T15:04:23;13.10;99.90
12504;DHT22;6316;48.118;-1.690;2024-02-28T15:06:50;13.10;99.90
12504;DHT22;6316;48.118;-1.690;2024-02-28T15:09:15;13.00;99.90
12504;DHT22;6316;48.118;-1.690;2024-02-28T15:11:41;13.00;99.90
12504;DHT22;6316;48.118;-1.690;2024-02-28T15:14:07;13.00;99.90
12504;DHT22;6316;48.118;-1.690;2024-02-28T15:16:33;13.00;99.90
12504;DHT22;6316;48.118;-1.690;2024-02-28T15:18:58;13.00;99.90
12504;DHT22;6316;48.118;-1.690;2024-02-28T15:21:24;13.00;99.90
12504;DHT22;6316;48.118;-1.690;2024-02-28T15:23:50;13.00;99.90
12504;DHT22;6316;48.118;-1.690;2024-02-28T15:26:16;13.00;99.90
12504;DHT22;6316;48.118;-1.690;2024-02-28T15:28:41;13.00;99.90
12504;DHT22;6316;48.118;-1.690;2024-02-28T15:31:07;13.00;99.90
12504;DHT22;6316;48.118;-1.690;2024-02-28T15:33:33;12.90;99.90